Durham, NH (03824)

10:37 AM EDT on September 03, 2015 (GMT -0400)
Edgewood Rd. | | Change Station
CLOSE
Current Station
Personal Weather Station
Location: Durham, NH
Elevation: 128 ft
Nearby Weather Stations

Elev 128 ft 43.15 °N, 70.93 °W | Updated 16 seconds ago

Partly Cloudy
Partly Cloudy
83.8 °F
Feels Like 87 °F
N
0.0
Wind Variable Wind from NNW
Gusts 2.0 mph

Today
High -- | Low -- °F
--% Chance of Precip.
Yesterday
High -- | Low -- °F
Precip. -- in
6:10 AM 7:15 PM
Waning Gibbous, 70% visible
Pressure 29.87 in
Visibility 7.0 miles
Clouds Overcast 25000 ft
Heat Index 87 °F
Dew Point 69 °F
Humidity 61%
Rainfall 0.00 in
Snow Depth Not available.
UV 2 out of 12
Pollen 6.90 out of 12
Air Quality Not available.
Flu Activity Not available.
METAR KPSM 031358Z 35004KT 7SM OVC250 27/19 A2986 RMK AO2A SLP113 T02650190
Pressure 29.87 in
Visibility 7.0 miles
Clouds Overcast 25000 ft
Heat Index 87 °F
Dew Point 69 °F
Humidity 61%
Rainfall 0.00 in
Snow Depth Not available.
UV 2 out of 12
Pollen 6.90 out of 12
Air Quality Not available.
Flu Activity Not available.
METAR KPSM 031358Z 35004KT 7SM OVC250 27/19 A2986 RMK AO2A SLP113 T02650190

10-Day Weather Forecast

×

Almanac

Astronomy

Sep. 03, 2015 Rise Set
Actual Time
Civil Twilight
Nautical Twilight
Astronomical Twilight
Moon
Length of Visible Light
Length of Day
Tomorrow will be .
, % of the Moon is Illuminated

Today's Extremes

State Highs State Lows

Community

WunderPhotos

Upload Photos

1,851,960 photos uploaded!

WunderBlogs® & News

Nearby

Air Quality

  Air Quality AQ Index Pollutant
Not available.

Snow Depth

Station Depth Elevation

Earthquake Activity

City Distance Mag. Time & Date
Minimum magnitude displayed is 2.5.

Coastal Water Temperatures

Place Temperature

Stations

Nearby Weather Stations

Station Location Temp. Windchill Dew Point Humidity Wind Precip. Elev Updated Type